KPTW/PTW METAR and TAF weather

Enter ICAO airport designator
Station Type Date Time Source
KPTW METAR 2019/12/14 10:54 UTC NOAA

KPTW 141054Z AUTO 04004KT 7SM OVC003 06/06 A2955 RMK AO2 SLP007 T00610061 $


Station Type Date Time Source
KPTW Decoded METAR 2019/12/14 10:54 UTC NOAA

POTTSTOWN LIMERICK AIRPORT, PA, United States (KPTW) 40-14N 075-33W 89M
Dec 14, 2019 - 05:54 AM EST / 2019.12.14 1054 UTC
Wind: from the NE (040 degrees) at 5 MPH (4 KT):0
Visibility: 7 mile(s):0
Sky conditions: overcast
Temperature: 43.0 F (6.1 C)
Dew Point: 43.0 F (6.1 C)
Relative Humidity: 100%
Pressure (altimeter): 29.55 in. Hg (1000 hPa)
ob: KPTW 141054Z AUTO 04004KT 7SM OVC003 06/06 A2955 RMK AO2 SLP007 T00610061
cycle: 11

Station Type Date Time Source
KPTW TAF UTC NOAA

Error!

Example: see airport list